sensor_id;sensor_type;location;lat;lon;timestamp;pressure;altitude;pressure_sealevel;temperature;humidity
51359;BME280;37448;51.588;7.248;2023-06-22T00:00:08;101194.31;;;21.58;57.11
51359;BME280;37448;51.588;7.248;2023-06-22T00:02:12;101195.06;;;21.45;57.55
51359;BME280;37448;51.588;7.248;2023-06-22T00:04:12;101177.63;;;21.56;56.41
51359;BME280;37448;51.588;7.248;2023-06-22T00:06:13;101185.38;;;21.44;57.82
51359;BME280;37448;51.588;7.248;2023-06-22T00:08:14;101179.88;;;21.47;57.40
51359;BME280;37448;51.588;7.248;2023-06-22T00:10:14;101176.47;;;21.45;57.73
51359;BME280;37448;51.588;7.248;2023-06-22T00:12:14;101179.72;;;21.50;57.89
51359;BME280;37448;51.588;7.248;2023-06-22T00:14:15;101184.66;;;21.57;57.04
51359;BME280;37448;51.588;7.248;2023-06-22T00:16:15;101190.84;;;21.57;57.22
51359;BME280;37448;51.588;7.248;2023-06-22T00:18:16;101193.56;;;21.56;57.73
51359;BME280;37448;51.588;7.248;2023-06-22T00:20:16;101192.41;;;21.45;58.49
51359;BME280;37448;51.588;7.248;2023-06-22T00:22:18;101184.38;;;21.47;58.73
51359;BME280;37448;51.588;7.248;2023-06-22T00:24:22;101195.66;;;21.50;57.70
51359;BME280;37448;51.588;7.248;2023-06-22T00:26:23;101186.16;;;21.46;58.74
51359;BME280;37448;51.588;7.248;2023-06-22T00:28:23;101187.03;;;21.47;58.39
51359;BME280;37448;51.588;7.248;2023-06-22T00:30:23;101179.88;;;21.47;58.02
51359;BME280;37448;51.588;7.248;2023-06-22T00:32:24;101193.75;;;21.52;57.85
51359;BME280;37448;51.588;7.248;2023-06-22T00:34:24;101193.88;;;21.51;59.04
51359;BME280;37448;51.588;7.248;2023-06-22T00:36:25;101193.56;;;21.56;57.75
51359;BME280;37448;51.588;7.248;2023-06-22T00:38:25;101196.97;;;21.58;58.07
51359;BME280;37448;51.588;7.248;2023-06-22T00:40:27;101198.03;;;21.55;58.57
51359;BME280;37448;51.588;7.248;2023-06-22T00:42:27;101193.22;;;21.62;57.71
51359;BME280;37448;51.588;7.248;2023-06-22T00:44:27;101195.88;;;21.62;57.97
51359;BME280;37448;51.588;7.248;2023-06-22T00:46:28;101189.31;;;21.53;58.84
51359;BME280;37448;51.588;7.248;2023-06-22T00:48:28;101198.22;;;21.52;58.10
51359;BME280;37448;51.588;7.248;2023-06-22T00:50:30;101196.59;;;21.49;58.43
51359;BME280;37448;51.588;7.248;2023-06-22T00:52:33;101196.53;;;21.51;57.97
51359;BME280;37448;51.588;7.248;2023-06-22T00:54:36;101190.53;;;21.47;59.00
51359;BME280;37448;51.588;7.248;2023-06-22T00:56:36;101186.16;;;21.46;58.35
51359;BME280;37448;51.588;7.248;2023-06-22T00:58:37;101183.69;;;21.43;58.24
51359;BME280;37448;51.588;7.248;2023-06-22T01:00:42;101179.75;;;21.34;59.16
51359;BME280;37448;51.588;7.248;2023-06-22T01:02:43;101183.53;;;21.30;59.89
51359;BME280;37448;51.588;7.248;2023-06-22T01:04:46;101179.81;;;21.18;59.95
51359;BME280;37448;51.588;7.248;2023-06-22T01:09:32;101176.97;;;21.21;60.44
51359;BME280;37448;51.588;7.248;2023-06-22T01:11:37;101190.25;;;21.21;59.57
51359;BME280;37448;51.588;7.248;2023-06-22T01:13:53;101188.53;;;21.20;60.34
51359;BME280;37448;51.588;7.248;2023-06-22T01:16:02;101185.47;;;21.12;60.84
51359;BME280;37448;51.588;7.248;2023-06-22T01:18:05;101180.94;;;21.14;59.91
51359;BME280;37448;51.588;7.248;2023-06-22T01:20:08;101186.91;;;21.18;59.61
51359;BME280;37448;51.588;7.248;2023-06-22T01:22:13;101191.19;;;21.20;59.72
51359;BME280;37448;51.588;7.248;2023-06-22T01:24:24;101186.13;;;21.16;60.00
51359;BME280;37448;51.588;7.248;2023-06-22T01:27:14;101183.59;;;21.14;60.39
51359;BME280;37448;51.588;7.248;2023-06-22T01:29:04;101176.56;;;21.13;59.73
51359;BME280;37448;51.588;7.248;2023-06-22T01:31:05;101176.47;;;21.15;59.92
51359;BME280;37448;51.588;7.248;2023-06-22T01:33:13;101169.88;;;21.06;60.50
51359;BME280;37448;51.588;7.248;2023-06-22T01:35:15;101174.25;;;21.07;60.05
51359;BME280;37448;51.588;7.248;2023-06-22T01:37:15;101175.19;;;21.06;60.61
51359;BME280;37448;51.588;7.248;2023-06-22T01:39:16;101171.09;;;21.00;60.25
51359;BME280;37448;51.588;7.248;2023-06-22T01:41:19;101172.06;;;20.99;60.26
51359;BME280;37448;51.588;7.248;2023-06-22T01:43:21;101163.47;;;20.94;60.53
51359;BME280;37448;51.588;7.248;2023-06-22T01:45:24;101158.88;;;20.82;62.03
51359;BME280;37448;51.588;7.248;2023-06-22T01:47:25;101155.69;;;20.75;62.25
51359;BME280;37448;51.588;7.248;2023-06-22T01:49:28;101155.50;;;20.78;61.29
51359;BME280;37448;51.588;7.248;2023-06-22T01:51:28;101154.72;;;20.76;61.79
51359;BME280;37448;51.588;7.248;2023-06-22T01:53:29;101155.84;;;20.72;61.84
51359;BME280;37448;51.588;7.248;2023-06-22T01:55:29;101153.28;;;20.70;61.39
51359;BME280;37448;51.588;7.248;2023-06-22T01:57:29;101159.63;;;20.68;61.55
51359;BME280;37448;51.588;7.248;2023-06-22T02:00:03;101166.88;;;20.64;61.64
51359;BME280;37448;51.588;7.248;2023-06-22T02:02:16;101165.25;;;20.61;62.13
51359;BME280;37448;51.588;7.248;2023-06-22T02:04:21;101163.53;;;20.60;62.46
51359;BME280;37448;51.588;7.248;2023-06-22T02:06:27;101168.00;;;20.60;62.71
51359;BME280;37448;51.588;7.248;2023-06-22T02:08:57;101162.19;;;20.53;63.83
51359;BME280;37448;51.588;7.248;2023-06-22T02:11:00;101162.94;;;20.55;62.22
51359;BME280;37448;51.588;7.248;2023-06-22T02:13:06;101162.19;;;20.53;62.75
51359;BME280;37448;51.588;7.248;2023-06-22T02:15:07;101157.06;;;20.50;63.27
51359;BME280;37448;51.588;7.248;2023-06-22T02:17:09;101165.06;;;20.48;63.11
51359;BME280;37448;51.588;7.248;2023-06-22T02:19:09;101165.25;;;20.45;63.85
51359;BME280;37448;51.588;7.248;2023-06-22T02:21:10;101166.19;;;20.44;63.40
51359;BME280;37448;51.588;7.248;2023-06-22T02:23:10;101166.88;;;20.48;62.89
51359;BME280;37448;51.588;7.248;2023-06-22T02:25:11;101154.75;;;20.44;63.67
51359;BME280;37448;51.588;7.248;2023-06-22T02:27:11;101161.66;;;20.46;64.45
51359;BME280;37448;51.588;7.248;2023-06-22T02:29:13;101158.06;;;20.47;63.45
51359;BME280;37448;51.588;7.248;2023-06-22T02:31:13;101169.38;;;20.51;63.31
51359;BME280;37448;51.588;7.248;2023-06-22T02:33:14;101163.22;;;20.50;63.80
51359;BME280;37448;51.588;7.248;2023-06-22T02:35:14;101159.63;;;20.51;63.52
51359;BME280;37448;51.588;7.248;2023-06-22T02:37:15;101158.50;;;20.56;63.64
51359;BME280;37448;51.588;7.248;2023-06-22T02:39:15;101156.69;;;20.56;63.57
51359;BME280;37448;51.588;7.248;2023-06-22T02:41:17;101152.25;;;20.57;63.24
51359;BME280;37448;51.588;7.248;2023-06-22T02:43:22;101149.69;;;20.55;63.33
51359;BME280;37448;51.588;7.248;2023-06-22T02:45:23;101159.34;;;20.56;63.90
51359;BME280;37448;51.588;7.248;2023-06-22T02:47:26;101156.97;;;20.51;64.31
51359;BME280;37448;51.588;7.248;2023-06-22T02:49:26;101157.63;;;20.55;63.44
51359;BME280;37448;51.588;7.248;2023-06-22T02:51:26;101160.47;;;20.52;64.14
51359;BME280;37448;51.588;7.248;2023-06-22T02:53:27;101159.53;;;20.53;64.42
51359;BME280;37448;51.588;7.248;2023-06-22T02:55:27;101158.94;;;20.48;64.79
51359;BME280;37448;51.588;7.248;2023-06-22T02:57:31;101154.16;;;20.39;65.86
51359;BME280;37448;51.588;7.248;2023-06-22T02:59:31;101149.69;;;20.39;64.74
51359;BME280;37448;51.588;7.248;2023-06-22T03:01:38;101151.41;;;20.40;65.63
51359;BME280;37448;51.588;7.248;2023-06-22T03:03:43;101156.53;;;20.43;65.09
51359;BME280;37448;51.588;7.248;2023-06-22T03:05:44;101156.69;;;20.40;65.22
51359;BME280;37448;51.588;7.248;2023-06-22T03:07:44;101149.16;;;20.32;66.08
51359;BME280;37448;51.588;7.248;2023-06-22T03:09:45;101144.03;;;20.29;66.40
51359;BME280;37448;51.588;7.248;2023-06-22T03:11:45;101136.25;;;20.26;66.64
51359;BME280;37448;51.588;7.248;2023-06-22T03:13:46;101144.72;;;20.17;67.25
51359;BME280;37448;51.588;7.248;2023-06-22T03:15:47;101143.00;;;20.16;67.50
51359;BME280;37448;51.588;7.248;2023-06-22T03:17:47;101139.13;;;20.21;66.66
51359;BME280;37448;51.588;7.248;2023-06-22T03:19:47;101144.25;;;20.08;67.82
51359;BME280;37448;51.588;7.248;2023-06-22T03:21:48;101130.69;;;20.15;66.92
51359;BME280;37448;51.588;7.248;2023-06-22T03:23:48;101133.94;;;20.20;66.32
51359;BME280;37448;51.588;7.248;2023-06-22T03:25:49;101129.38;;;20.06;67.76
51359;BME280;37448;51.588;7.248;2023-06-22T03:27:49;101128.28;;;20.10;67.14
51359;BME280;37448;51.588;7.248;2023-06-22T03:29:50;101131.69;;;20.12;66.93
51359;BME280;37448;51.588;7.248;2023-06-22T03:31:50;101125.84;;;20.05;67.33
51359;BME280;37448;51.588;7.248;2023-06-22T03:33:51;101122.25;;;20.06;67.25
51359;BME280;37448;51.588;7.248;2023-06-22T03:35:51;101131.00;;;20.08;67.11
51359;BME280;37448;51.588;7.248;2023-06-22T03:37:52;101125.25;;;20.00;67.63
51359;BME280;37448;51.588;7.248;2023-06-22T03:39:53;101126.38;;;19.96;68.13
51359;BME280;37448;51.588;7.248;2023-06-22T03:41:53;101112.94;;;19.82;68.20
51359;BME280;37448;51.588;7.248;2023-06-22T03:43:54;101131.50;;;19.82;68.79
51359;BME280;37448;51.588;7.248;2023-06-22T03:45:54;101125.88;;;19.88;67.44
51359;BME280;37448;51.588;7.248;2023-06-22T03:47:54;101124.25;;;19.85;68.03
51359;BME280;37448;51.588;7.248;2023-06-22T03:49:55;101126.13;;;19.83;68.54
51359;BME280;37448;51.588;7.248;2023-06-22T03:51:55;101125.09;;;19.86;67.50
51359;BME280;37448;51.588;7.248;2023-06-22T03:53:56;101122.16;;;19.74;69.25
51359;BME280;37448;51.588;7.248;2023-06-22T03:55:56;101120.06;;;19.81;68.39
51359;BME280;37448;51.588;7.248;2023-06-22T03:57:57;101115.50;;;19.67;68.95
51359;BME280;37448;51.588;7.248;2023-06-22T03:59:57;101112.50;;;19.73;68.40
51359;BME280;37448;51.588;7.248;2023-06-22T04:01:58;101113.13;;;19.78;68.29
51359;BME280;37448;51.588;7.248;2023-06-22T04:03:58;101104.91;;;19.67;69.16
51359;BME280;37448;51.588;7.248;2023-06-22T04:05:59;101103.47;;;19.60;69.67
51359;BME280;37448;51.588;7.248;2023-06-22T04:07:59;101107.31;;;19.54;70.35
51359;BME280;37448;51.588;7.248;2023-06-22T04:09:59;101102.53;;;19.61;69.95
51359;BME280;37448;51.588;7.248;2023-06-22T04:12:01;101091.84;;;19.46;70.81
51359;BME280;37448;51.588;7.248;2023-06-22T04:14:02;101092.88;;;19.60;69.69
51359;BME280;37448;51.588;7.248;2023-06-22T04:16:02;101097.72;;;19.69;69.05
51359;BME280;37448;51.588;7.248;2023-06-22T04:18:02;101109.53;;;19.79;68.89
51359;BME280;37448;51.588;7.248;2023-06-22T04:20:03;101112.00;;;19.83;69.14
51359;BME280;37448;51.588;7.248;2023-06-22T04:22:04;101102.13;;;19.86;68.70
51359;BME280;37448;51.588;7.248;2023-06-22T04:24:06;101107.81;;;19.78;69.41
51359;BME280;37448;51.588;7.248;2023-06-22T04:26:07;101107.03;;;19.76;69.63
51359;BME280;37448;51.588;7.248;2023-06-22T04:28:07;101104.41;;;19.76;69.75
51359;BME280;37448;51.588;7.248;2023-06-22T04:30:12;101101.00;;;19.90;69.06
51359;BME280;37448;51.588;7.248;2023-06-22T04:32:15;101110.13;;;19.85;69.34
51359;BME280;37448;51.588;7.248;2023-06-22T04:34:16;101105.94;;;19.80;69.67
51359;BME280;37448;51.588;7.248;2023-06-22T04:36:17;101101.06;;;19.89;69.01
51359;BME280;37448;51.588;7.248;2023-06-22T04:38:17;101106.69;;;20.00;68.23
51359;BME280;37448;51.588;7.248;2023-06-22T04:40:17;101098.16;;;19.95;68.85
51359;BME280;37448;51.588;7.248;2023-06-22T04:42:18;101108.59;;;19.98;69.19
51359;BME280;37448;51.588;7.248;2023-06-22T04:44:18;101101.91;;;19.91;69.84
51359;BME280;37448;51.588;7.248;2023-06-22T04:46:25;101108.25;;;20.04;69.14
51359;BME280;37448;51.588;7.248;2023-06-22T04:48:25;101103.13;;;20.01;69.09
51359;BME280;37448;51.588;7.248;2023-06-22T04:50:25;101102.59;;;20.11;68.79
51359;BME280;37448;51.588;7.248;2023-06-22T04:52:26;101099.16;;;19.92;69.21
51359;BME280;37448;51.588;7.248;2023-06-22T04:54:26;101100.47;;;20.01;69.14
51359;BME280;37448;51.588;7.248;2023-06-22T04:56:27;101096.47;;;20.10;68.71
51359;BME280;37448;51.588;7.248;2023-06-22T04:58:30;101105.25;;;19.77;70.16
51359;BME280;37448;51.588;7.248;2023-06-22T05:00:32;101094.16;;;19.86;70.01
51359;BME280;37448;51.588;7.248;2023-06-22T05:02:37;101095.94;;;19.86;69.96
51359;BME280;37448;51.588;7.248;2023-06-22T05:04:37;101092.69;;;19.98;69.64
51359;BME280;37448;51.588;7.248;2023-06-22T05:06:40;101094.34;;;19.83;70.45
51359;BME280;37448;51.588;7.248;2023-06-22T05:08:41;101096.09;;;20.00;69.11
51359;BME280;37448;51.588;7.248;2023-06-22T05:10:41;101093.38;;;20.02;69.21
51359;BME280;37448;51.588;7.248;2023-06-22T05:12:42;101094.06;;;20.05;69.22
51359;BME280;37448;51.588;7.248;2023-06-22T05:14:42;101102.78;;;20.07;68.66
51359;BME280;37448;51.588;7.248;2023-06-22T05:16:43;101107.91;;;20.11;69.06
51359;BME280;37448;51.588;7.248;2023-06-22T05:18:44;101102.59;;;20.11;68.81
51359;BME280;37448;51.588;7.248;2023-06-22T05:20:44;101108.59;;;20.14;68.77
51359;BME280;37448;51.588;7.248;2023-06-22T05:22:45;101112.19;;;20.13;68.97
51359;BME280;37448;51.588;7.248;2023-06-22T05:24:45;101107.59;;;20.17;68.76
51359;BME280;37448;51.588;7.248;2023-06-22T05:26:46;101116.31;;;20.19;68.73
51359;BME280;37448;51.588;7.248;2023-06-22T05:28:47;101103.66;;;20.24;68.59
51359;BME280;37448;51.588;7.248;2023-06-22T05:30:48;101105.38;;;20.25;68.42
51359;BME280;37448;51.588;7.248;2023-06-22T05:32:48;101106.06;;;20.29;68.43
51359;BME280;37448;51.588;7.248;2023-06-22T05:34:49;101106.72;;;20.32;68.54
51359;BME280;37448;51.588;7.248;2023-06-22T05:36:49;101115.63;;;20.31;68.66
51359;BME280;37448;51.588;7.248;2023-06-22T05:38:50;101112.38;;;20.26;68.83
51359;BME280;37448;51.588;7.248;2023-06-22T05:40:51;101125.22;;;20.34;68.39
51359;BME280;37448;51.588;7.248;2023-06-22T05:42:51;101132.94;;;20.39;67.84
51359;BME280;37448;51.588;7.248;2023-06-22T05:44:52;101131.00;;;20.25;68.56
51359;BME280;37448;51.588;7.248;2023-06-22T05:46:53;101127.44;;;20.26;68.49
51359;BME280;37448;51.588;7.248;2023-06-22T05:48:53;101124.69;;;20.27;68.19
51359;BME280;37448;51.588;7.248;2023-06-22T05:50:54;101130.00;;;20.27;68.00
51359;BME280;37448;51.588;7.248;2023-06-22T05:52:54;101130.59;;;20.32;68.09
51359;BME280;37448;51.588;7.248;2023-06-22T05:54:55;101133.94;;;20.36;68.25
51359;BME280;37448;51.588;7.248;2023-06-22T05:56:55;101142.13;;;20.31;68.82
51359;BME280;37448;51.588;7.248;2023-06-22T05:58:56;101147.19;;;20.36;68.48
51359;BME280;37448;51.588;7.248;2023-06-22T06:00:56;101145.75;;;20.46;68.02
51359;BME280;37448;51.588;7.248;2023-06-22T06:02:57;101137.53;;;20.35;69.35
51359;BME280;37448;51.588;7.248;2023-06-22T06:05:03;101148.84;;;20.39;69.06
51359;BME280;37448;51.588;7.248;2023-06-22T06:07:03;101145.66;;;20.48;68.12
51359;BME280;37448;51.588;7.248;2023-06-22T06:09:04;101141.56;;;20.42;68.69
51359;BME280;37448;51.588;7.248;2023-06-22T06:11:05;101146.38;;;20.51;68.66
51359;BME280;37448;51.588;7.248;2023-06-22T06:13:05;101142.78;;;20.53;68.67
51359;BME280;37448;51.588;7.248;2023-06-22T06:15:06;101142.25;;;20.62;68.02
51359;BME280;37448;51.588;7.248;2023-06-22T06:17:06;101146.94;;;20.73;67.67
51359;BME280;37448;51.588;7.248;2023-06-22T06:19:07;101147.97;;;20.70;68.10
51359;BME280;37448;51.588;7.248;2023-06-22T06:21:07;101133.69;;;20.57;68.81
51359;BME280;37448;51.588;7.248;2023-06-22T06:23:08;101135.81;;;20.50;68.80
51359;BME280;37448;51.588;7.248;2023-06-22T06:25:08;101137.28;;;20.56;68.41
51359;BME280;37448;51.588;7.248;2023-06-22T06:27:09;101127.44;;;20.58;68.50
51359;BME280;37448;51.588;7.248;2023-06-22T06:29:12;101120.09;;;20.63;68.24
51359;BME280;37448;51.588;7.248;2023-06-22T06:31:12;101117.34;;;20.64;68.19
51359;BME280;37448;51.588;7.248;2023-06-22T06:33:17;101125.22;;;20.66;67.73
51359;BME280;37448;51.588;7.248;2023-06-22T06:35:18;101119.25;;;20.62;68.16
51359;BME280;37448;51.588;7.248;2023-06-22T06:37:18;101117.94;;;20.70;67.53
51359;BME280;37448;51.588;7.248;2023-06-22T06:39:18;101120.59;;;20.70;67.49
51359;BME280;37448;51.588;7.248;2023-06-22T06:41:19;101115.19;;;20.71;67.67
51359;BME280;37448;51.588;7.248;2023-06-22T06:43:19;101121.19;;;20.75;67.38
51359;BME280;37448;51.588;7.248;2023-06-22T06:45:21;101121.78;;;20.80;67.25
51359;BME280;37448;51.588;7.248;2023-06-22T06:47:22;101118.97;;;20.83;67.30
51359;BME280;37448;51.588;7.248;2023-06-22T06:49:23;101123.50;;;20.81;67.35
51359;BME280;37448;51.588;7.248;2023-06-22T06:51:23;101128.81;;;20.81;67.04
51359;BME280;37448;51.588;7.248;2023-06-22T06:53:24;101126.31;;;20.78;67.78
51359;BME280;37448;51.588;7.248;2023-06-22T06:55:24;101130.00;;;20.75;67.84
51359;BME280;37448;51.588;7.248;2023-06-22T06:57:25;101125.72;;;20.73;67.78
51359;BME280;37448;51.588;7.248;2023-06-22T06:59:28;101120.59;;;20.70;68.24
51359;BME280;37448;51.588;7.248;2023-06-22T07:01:30;101116.50;;;20.80;67.89
51359;BME280;37448;51.588;7.248;2023-06-22T07:03:33;101122.31;;;20.87;67.66
51359;BME280;37448;51.588;7.248;2023-06-22T07:05:34;101115.25;;;21.02;67.38
51359;BME280;37448;51.588;7.248;2023-06-22T07:07:35;101123.66;;;21.10;67.10
51359;BME280;37448;51.588;7.248;2023-06-22T07:09:35;101120.38;;;21.05;67.18
51359;BME280;37448;51.588;7.248;2023-06-22T07:11:36;101125.81;;;21.18;66.79
51359;BME280;37448;51.588;7.248;2023-06-22T07:13:36;101122.72;;;21.26;66.79
51359;BME280;37448;51.588;7.248;2023-06-22T07:15:37;101110.13;;;20.99;68.31
51359;BME280;37448;51.588;7.248;2023-06-22T07:17:38;101108.28;;;21.15;67.24
51359;BME280;37448;51.588;7.248;2023-06-22T07:19:42;101105.66;;;21.15;67.65
51359;BME280;37448;51.588;7.248;2023-06-22T07:21:42;101104.28;;;21.08;67.74
51359;BME280;37448;51.588;7.248;2023-06-22T07:23:43;101096.03;;;21.13;67.53
51359;BME280;37448;51.588;7.248;2023-06-22T07:25:43;101096.09;;;21.27;67.00
51359;BME280;37448;51.588;7.248;2023-06-22T07:27:46;101088.97;;;21.28;66.91
51359;BME280;37448;51.588;7.248;2023-06-22T07:29:46;101090.84;;;21.26;66.64
51359;BME280;37448;51.588;7.248;2023-06-22T07:31:48;101089.47;;;21.34;66.28
51359;BME280;37448;51.588;7.248;2023-06-22T07:33:50;101091.09;;;21.37;65.90
51359;BME280;37448;51.588;7.248;2023-06-22T07:35:50;101085.66;;;21.39;65.91
51359;BME280;37448;51.588;7.248;2023-06-22T07:37:52;101087.47;;;21.38;66.32
51359;BME280;37448;51.588;7.248;2023-06-22T07:39:52;101085.19;;;21.32;66.05
51359;BME280;37448;51.588;7.248;2023-06-22T07:41:54;101078.56;;;21.39;65.99
51359;BME280;37448;51.588;7.248;2023-06-22T07:43:54;101073.44;;;21.50;65.66
51359;BME280;37448;51.588;7.248;2023-06-22T07:45:54;101073.06;;;21.42;66.02
51359;BME280;37448;51.588;7.248;2023-06-22T07:47:55;101064.34;;;21.40;65.77
51359;BME280;37448;51.588;7.248;2023-06-22T07:49:58;101069.66;;;21.55;65.32
51359;BME280;37448;51.588;7.248;2023-06-22T07:52:01;101071.00;;;21.62;65.16
51359;BME280;37448;51.588;7.248;2023-06-22T07:54:02;101072.56;;;21.66;65.36
51359;BME280;37448;51.588;7.248;2023-06-22T07:56:02;101070.88;;;21.63;65.84
51359;BME280;37448;51.588;7.248;2023-06-22T07:58:07;101070.66;;;21.83;65.12
51359;BME280;37448;51.588;7.248;2023-06-22T08:00:07;101059.00;;;21.71;66.02
51359;BME280;37448;51.588;7.248;2023-06-22T08:02:14;101060.22;;;21.65;66.41
51359;BME280;37448;51.588;7.248;2023-06-22T08:04:14;101061.72;;;21.84;66.80
51359;BME280;37448;51.588;7.248;2023-06-22T08:06:15;101060.94;;;22.11;66.38
51359;BME280;37448;51.588;7.248;2023-06-22T08:08:16;101057.66;;;22.34;65.67
51359;BME280;37448;51.588;7.248;2023-06-22T08:10:16;101066.06;;;22.41;65.56
51359;BME280;37448;51.588;7.248;2023-06-22T08:12:17;101056.31;;;22.69;64.73
51359;BME280;37448;51.588;7.248;2023-06-22T08:14:17;101060.94;;;22.80;64.52
51359;BME280;37448;51.588;7.248;2023-06-22T08:16:18;101058.38;;;22.91;63.66
51359;BME280;37448;51.588;7.248;2023-06-22T08:18:18;101054.94;;;22.76;63.22
51359;BME280;37448;51.588;7.248;2023-06-22T08:20:19;101047.84;;;23.03;63.48
51359;BME280;37448;51.588;7.248;2023-06-22T08:22:20;101032.84;;;23.02;62.36
51359;BME280;37448;51.588;7.248;2023-06-22T08:24:20;101031.50;;;23.22;62.97
51359;BME280;37448;51.588;7.248;2023-06-22T08:26:20;101030.25;;;23.28;63.37
51359;BME280;37448;51.588;7.248;2023-06-22T08:28:21;101019.34;;;23.57;62.39
51359;BME280;37448;51.588;7.248;2023-06-22T08:30:22;101022.75;;;23.59;62.17
51359;BME280;37448;51.588;7.248;2023-06-22T08:32:22;101019.13;;;23.60;61.81
51359;BME280;37448;51.588;7.248;2023-06-22T08:34:23;101023.41;;;23.49;61.45
51359;BME280;37448;51.588;7.248;2023-06-22T08:36:23;101017.66;;;23.56;61.77
51359;BME280;37448;51.588;7.248;2023-06-22T08:38:23;101017.03;;;23.39;62.15
51359;BME280;37448;51.588;7.248;2023-06-22T08:40:24;101008.72;;;23.31;62.60
51359;BME280;37448;51.588;7.248;2023-06-22T08:42:25;101002.75;;;23.40;62.61
51359;BME280;37448;51.588;7.248;2023-06-22T08:44:26;100981.19;;;23.43;62.82
51359;BME280;37448;51.588;7.248;2023-06-22T08:46:26;100983.75;;;23.58;62.34
51359;BME280;37448;51.588;7.248;2023-06-22T08:48:30;100979.38;;;23.57;62.31
51359;BME280;37448;51.588;7.248;2023-06-22T08:50:30;100988.00;;;24.11;61.59
51359;BME280;37448;51.588;7.248;2023-06-22T08:52:31;100995.41;;;24.43;60.91
51359;BME280;37448;51.588;7.248;2023-06-22T08:54:31;100990.66;;;24.35;61.04
51359;BME280;37448;51.588;7.248;2023-06-22T08:56:33;100988.63;;;24.39;60.20
51359;BME280;37448;51.588;7.248;2023-06-22T08:58:33;100988.69;;;24.61;59.96
51359;BME280;37448;51.588;7.248;2023-06-22T09:00:34;100985.72;;;24.42;59.42
51359;BME280;37448;51.588;7.248;2023-06-22T09:02:35;100987.41;;;24.43;59.74
51359;BME280;37448;51.588;7.248;2023-06-22T09:04:35;100987.06;;;24.23;59.75
51359;BME280;37448;51.588;7.248;2023-06-22T09:06:37;100988.38;;;24.42;60.05
51359;BME280;37448;51.588;7.248;2023-06-22T09:08:41;100982.63;;;24.59;59.88
51359;BME280;37448;51.588;7.248;2023-06-22T09:10:41;100982.94;;;24.43;60.47
51359;BME280;37448;51.588;7.248;2023-06-22T09:12:42;100977.41;;;24.58;59.74
51359;BME280;37448;51.588;7.248;2023-06-22T09:14:42;100982.44;;;24.74;59.90
51359;BME280;37448;51.588;7.248;2023-06-22T09:16:43;100978.25;;;24.58;59.86
51359;BME280;37448;51.588;7.248;2023-06-22T09:18:47;100985.56;;;24.68;60.04
51359;BME280;37448;51.588;7.248;2023-06-22T09:20:47;100983.94;;;24.78;60.30
51359;BME280;37448;51.588;7.248;2023-06-22T09:22:48;100984.53;;;24.82;59.71
51359;BME280;37448;51.588;7.248;2023-06-22T09:24:49;100971.31;;;24.91;58.94
51359;BME280;37448;51.588;7.248;2023-06-22T09:26:49;100985.19;;;24.97;58.45
51359;BME280;37448;51.588;7.248;2023-06-22T09:28:50;100965.97;;;24.91;59.09
51359;BME280;37448;51.588;7.248;2023-06-22T09:30:51;100970.88;;;25.09;58.55
51359;BME280;37448;51.588;7.248;2023-06-22T09:32:51;100968.69;;;25.03;58.53
51359;BME280;37448;51.588;7.248;2023-06-22T09:34:52;100966.97;;;25.13;58.41
51359;BME280;37448;51.588;7.248;2023-06-22T09:36:53;100968.50;;;24.82;58.72
51359;BME280;37448;51.588;7.248;2023-06-22T09:38:54;100974.53;;;24.61;59.06
51359;BME280;37448;51.588;7.248;2023-06-22T09:40:58;100985.13;;;24.49;59.68
51359;BME280;37448;51.588;7.248;2023-06-22T09:42:59;100979.22;;;24.57;58.86
51359;BME280;37448;51.588;7.248;2023-06-22T09:44:59;100987.72;;;24.51;58.72
51359;BME280;37448;51.588;7.248;2023-06-22T09:47:02;100971.47;;;24.54;58.92
51359;BME280;37448;51.588;7.248;2023-06-22T09:49:02;100976.72;;;24.43;59.43
51359;BME280;37448;51.588;7.248;2023-06-22T09:51:03;100959.69;;;24.57;58.94
51359;BME280;37448;51.588;7.248;2023-06-22T09:53:03;100951.81;;;24.66;59.60
51359;BME280;37448;51.588;7.248;2023-06-22T09:55:04;100949.38;;;24.88;58.80
51359;BME280;37448;51.588;7.248;2023-06-22T09:57:04;100949.00;;;24.92;59.12
51359;BME280;37448;51.588;7.248;2023-06-22T09:59:05;100951.44;;;25.07;58.42
51359;BME280;37448;51.588;7.248;2023-06-22T10:01:05;100951.44;;;25.07;58.17
51359;BME280;37448;51.588;7.248;2023-06-22T10:03:05;100950.38;;;25.10;57.52
51359;BME280;37448;51.588;7.248;2023-06-22T10:05:06;100947.09;;;25.29;57.38
51359;BME280;37448;51.588;7.248;2023-06-22T10:07:07;100947.94;;;25.41;57.21
51359;BME280;37448;51.588;7.248;2023-06-22T10:09:08;100943.41;;;25.18;57.32
51359;BME280;37448;51.588;7.248;2023-06-22T10:11:08;100952.19;;;25.20;57.53
51359;BME280;37448;51.588;7.248;2023-06-22T10:13:10;100949.75;;;25.29;56.97
51359;BME280;37448;51.588;7.248;2023-06-22T10:15:11;100934.94;;;25.13;57.47
51359;BME280;37448;51.588;7.248;2023-06-22T10:17:11;100944.41;;;25.29;56.96
51359;BME280;37448;51.588;7.248;2023-06-22T10:19:12;100932.63;;;25.08;58.18
51359;BME280;37448;51.588;7.248;2023-06-22T10:21:12;100931.41;;;25.24;58.58
51359;BME280;37448;51.588;7.248;2023-06-22T10:23:12;100923.25;;;25.37;58.19
51359;BME280;37448;51.588;7.248;2023-06-22T10:25:13;100923.28;;;25.48;57.31
51359;BME280;37448;51.588;7.248;2023-06-22T10:27:13;100918.31;;;25.32;57.60
51359;BME280;37448;51.588;7.248;2023-06-22T10:29:14;100910.53;;;25.18;58.53
51359;BME280;37448;51.588;7.248;2023-06-22T10:31:14;100909.53;;;25.07;57.97
51359;BME280;37448;51.588;7.248;2023-06-22T10:33:16;100909.53;;;25.42;57.35
51359;BME280;37448;51.588;7.248;2023-06-22T10:35:17;100908.44;;;25.33;57.60
51359;BME280;37448;51.588;7.248;2023-06-22T10:37:17;100909.69;;;25.51;57.68